sensor_id;sensor_type;location;lat;lon;timestamp;pressure;altitude;pressure_sealevel;temperature;humidity
56402;BME280;42299;35.160;26.100;2022-11-20T00:00:50;101641.69;;;19.50;98.58
56402;BME280;42299;35.160;26.100;2022-11-20T00:02:11;101641.69;;;19.50;98.55
56402;BME280;42299;35.160;26.100;2022-11-20T00:03:33;101640.78;;;19.53;99.27
56402;BME280;42299;35.160;26.100;2022-11-20T00:04:55;101652.41;;;19.55;100.00
56402;BME280;42299;35.160;26.100;2022-11-20T00:06:18;101643.47;;;19.54;100.00
56402;BME280;42299;35.160;26.100;2022-11-20T00:07:40;101649.72;;;19.55;100.00
56402;BME280;42299;35.160;26.100;2022-11-20T00:09:03;101639.00;;;19.55;99.89
56402;BME280;42299;35.160;26.100;2022-11-20T00:10:26;101643.44;;;19.57;99.04
56402;BME280;42299;35.160;26.100;2022-11-20T00:11:47;101630.03;;;19.59;98.09
56402;BME280;42299;35.160;26.100;2022-11-20T00:13:11;101628.22;;;19.62;98.22
56402;BME280;42299;35.160;26.100;2022-11-20T00:14:32;101621.97;;;19.62;98.24
56402;BME280;42299;35.160;26.100;2022-11-20T00:15:57;101619.31;;;19.62;98.22
56402;BME280;42299;35.160;26.100;2022-11-20T00:17:19;101633.59;;;19.61;98.43
56402;BME280;42299;35.160;26.100;2022-11-20T00:18:41;101626.47;;;19.57;100.00
56402;BME280;42299;35.160;26.100;2022-11-20T00:20:03;101628.28;;;19.55;100.00
56402;BME280;42299;35.160;26.100;2022-11-20T00:21:27;101622.94;;;19.52;100.00
56402;BME280;42299;35.160;26.100;2022-11-20T00:22:49;101631.00;;;19.47;100.00
56402;BME280;42299;35.160;26.100;2022-11-20T00:24:12;101637.22;;;19.44;100.00
56402;BME280;42299;35.160;26.100;2022-11-20T00:25:34;101636.38;;;19.41;100.00
56402;BME280;42299;35.160;26.100;2022-11-20T00:26:56;101646.19;;;19.37;100.00
56402;BME280;42299;35.160;26.100;2022-11-20T00:28:19;101635.53;;;19.36;100.00
56402;BME280;42299;35.160;26.100;2022-11-20T00:29:41;101645.34;;;19.34;100.00
56402;BME280;42299;35.160;26.100;2022-11-20T00:31:05;101632.84;;;19.34;100.00
56402;BME280;42299;35.160;26.100;2022-11-20T00:32:29;101647.13;;;19.35;100.00
56402;BME280;42299;35.160;26.100;2022-11-20T00:33:52;101640.88;;;19.33;99.98
56402;BME280;42299;35.160;26.100;2022-11-20T00:35:13;101643.56;;;19.34;97.08
56402;BME280;42299;35.160;26.100;2022-11-20T00:36:36;101639.97;;;19.37;94.71
56402;BME280;42299;35.160;26.100;2022-11-20T00:37:58;101640.84;;;19.37;92.82
56402;BME280;42299;35.160;26.100;2022-11-20T00:39:19;101639.97;;;19.38;91.59
56402;BME280;42299;35.160;26.100;2022-11-20T00:40:42;101648.00;;;19.40;90.56
56402;BME280;42299;35.160;26.100;2022-11-20T00:42:03;101659.59;;;19.42;90.20
56402;BME280;42299;35.160;26.100;2022-11-20T00:43:27;101644.41;;;19.42;89.56
56402;BME280;42299;35.160;26.100;2022-11-20T00:44:48;101647.09;;;19.42;88.40
56402;BME280;42299;35.160;26.100;2022-11-20T00:46:13;101648.84;;;19.45;87.69
56402;BME280;42299;35.160;26.100;2022-11-20T00:47:35;101646.19;;;19.46;86.75
56402;BME280;42299;35.160;26.100;2022-11-20T00:48:57;101641.72;;;19.47;85.89
56402;BME280;42299;35.160;26.100;2022-11-20T00:50:20;101648.84;;;19.49;84.72
56402;BME280;42299;35.160;26.100;2022-11-20T00:51:41;101659.53;;;19.51;84.70
56402;BME280;42299;35.160;26.100;2022-11-20T00:53:03;101647.94;;;19.50;84.87
56402;BME280;42299;35.160;26.100;2022-11-20T00:54:25;101643.50;;;19.48;85.23
56402;BME280;42299;35.160;26.100;2022-11-20T00:55:54;101657.78;;;19.48;85.12
56402;BME280;42299;35.160;26.100;2022-11-20T00:57:15;101666.72;;;19.47;85.54
56402;BME280;42299;35.160;26.100;2022-11-20T00:58:42;101669.41;;;19.47;86.24
56402;BME280;42299;35.160;26.100;2022-11-20T01:00:06;101664.06;;;19.46;87.32
56402;BME280;42299;35.160;26.100;2022-11-20T01:01:29;101667.59;;;19.43;88.24
56402;BME280;42299;35.160;26.100;2022-11-20T01:02:50;101670.31;;;19.37;88.93
56402;BME280;42299;35.160;26.100;2022-11-20T01:04:12;101672.09;;;19.37;89.88
56402;BME280;42299;35.160;26.100;2022-11-20T01:05:35;101665.00;;;19.34;90.52
56402;BME280;42299;35.160;26.100;2022-11-20T01:06:56;101674.81;;;19.32;91.29
56402;BME280;42299;35.160;26.100;2022-11-20T01:08:19;101676.63;;;19.29;92.01
56402;BME280;42299;35.160;26.100;2022-11-20T01:09:40;101685.56;;;19.25;92.74
56402;BME280;42299;35.160;26.100;2022-11-20T01:11:05;101682.91;;;19.22;92.77
56402;BME280;42299;35.160;26.100;2022-11-20T01:12:26;101685.59;;;19.19;92.46
56402;BME280;42299;35.160;26.100;2022-11-20T01:13:52;101696.28;;;19.17;91.79
56402;BME280;42299;35.160;26.100;2022-11-20T01:15:13;101692.72;;;19.17;90.36
56402;BME280;42299;35.160;26.100;2022-11-20T01:16:37;101692.72;;;19.17;89.02
56402;BME280;42299;35.160;26.100;2022-11-20T01:18:00;101693.63;;;19.17;87.08
56402;BME280;42299;35.160;26.100;2022-11-20T01:19:22;101677.56;;;19.17;85.83
56402;BME280;42299;35.160;26.100;2022-11-20T01:20:45;101678.44;;;19.19;84.70
56402;BME280;42299;35.160;26.100;2022-11-20T01:22:06;101679.34;;;19.20;84.13
56402;BME280;42299;35.160;26.100;2022-11-20T01:23:31;101682.91;;;19.20;83.58
56402;BME280;42299;35.160;26.100;2022-11-20T01:24:53;101682.91;;;19.22;83.46
56402;BME280;42299;35.160;26.100;2022-11-20T01:26:18;101675.78;;;19.21;83.29
56402;BME280;42299;35.160;26.100;2022-11-20T01:27:40;101674.88;;;19.19;83.21
56402;BME280;42299;35.160;26.100;2022-11-20T01:29:05;101669.53;;;19.20;83.33
56402;BME280;42299;35.160;26.100;2022-11-20T01:30:28;101674.88;;;19.19;83.85
56402;BME280;42299;35.160;26.100;2022-11-20T01:31:50;101669.56;;;19.16;84.02
56402;BME280;42299;35.160;26.100;2022-11-20T01:33:13;101666.00;;;19.14;84.90
56402;BME280;42299;35.160;26.100;2022-11-20T01:34:34;101669.56;;;19.11;85.20
56402;BME280;42299;35.160;26.100;2022-11-20T01:36:03;101668.66;;;19.10;85.27
56402;BME280;42299;35.160;26.100;2022-11-20T01:37:25;101665.13;;;19.08;85.82
56402;BME280;42299;35.160;26.100;2022-11-20T01:38:48;101666.03;;;19.07;86.02
56402;BME280;42299;35.160;26.100;2022-11-20T01:40:12;101673.16;;;19.08;86.03
56402;BME280;42299;35.160;26.100;2022-11-20T01:41:34;101665.13;;;19.08;85.98
56402;BME280;42299;35.160;26.100;2022-11-20T01:43:14;101666.91;;;19.08;86.26
56402;BME280;42299;35.160;26.100;2022-11-20T01:44:51;101665.13;;;19.07;86.11
56402;BME280;42299;35.160;26.100;2022-11-20T01:46:14;101660.66;;;19.09;85.93
56402;BME280;42299;35.160;26.100;2022-11-20T01:47:39;101666.88;;;19.13;85.45
56402;BME280;42299;35.160;26.100;2022-11-20T01:49:04;101667.78;;;19.15;85.27
56402;BME280;42299;35.160;26.100;2022-11-20T01:50:28;101666.00;;;19.15;85.06
56402;BME280;42299;35.160;26.100;2022-11-20T01:51:52;101667.78;;;19.13;85.22
56402;BME280;42299;35.160;26.100;2022-11-20T01:53:20;101670.44;;;19.13;85.15
56402;BME280;42299;35.160;26.100;2022-11-20T01:54:47;101670.44;;;19.11;85.53
56402;BME280;42299;35.160;26.100;2022-11-20T01:56:12;101673.13;;;19.13;85.50
56402;BME280;42299;35.160;26.100;2022-11-20T01:57:35;101676.69;;;19.12;85.97
56402;BME280;42299;35.160;26.100;2022-11-20T01:59:01;101672.22;;;19.13;86.33
56402;BME280;42299;35.160;26.100;2022-11-20T02:00:26;101675.81;;;19.11;86.59
56402;BME280;42299;35.160;26.100;2022-11-20T02:01:49;101675.81;;;19.11;86.58
56402;BME280;42299;35.160;26.100;2022-11-20T02:03:13;101672.22;;;19.13;86.61
56402;BME280;42299;35.160;26.100;2022-11-20T02:04:36;101674.91;;;19.14;86.66
56402;BME280;42299;35.160;26.100;2022-11-20T02:06:04;101679.38;;;19.14;87.01
56402;BME280;42299;35.160;26.100;2022-11-20T02:07:30;101676.69;;;19.12;87.22
56402;BME280;42299;35.160;26.100;2022-11-20T02:08:53;101670.44;;;19.13;87.14
56402;BME280;42299;35.160;26.100;2022-11-20T02:10:16;101663.31;;;19.14;87.35
56402;BME280;42299;35.160;26.100;2022-11-20T02:11:38;101659.75;;;19.15;87.52
56402;BME280;42299;35.160;26.100;2022-11-20T02:13:00;101666.84;;;19.19;87.47
56402;BME280;42299;35.160;26.100;2022-11-20T02:14:48;101665.06;;;19.19;87.68
56402;BME280;42299;35.160;26.100;2022-11-20T02:16:24;101657.94;;;19.20;87.68
56402;BME280;42299;35.160;26.100;2022-11-20T02:17:47;101660.59;;;19.20;88.29
56402;BME280;42299;35.160;26.100;2022-11-20T02:19:15;101664.16;;;19.22;88.70
56402;BME280;42299;35.160;26.100;2022-11-20T02:20:40;101665.06;;;19.21;89.05
56402;BME280;42299;35.160;26.100;2022-11-20T02:22:07;101658.81;;;19.20;89.21
56402;BME280;42299;35.160;26.100;2022-11-20T02:23:38;101657.94;;;19.20;89.77
56402;BME280;42299;35.160;26.100;2022-11-20T02:25:03;101657.94;;;19.21;90.32
56402;BME280;42299;35.160;26.100;2022-11-20T02:26:26;101649.00;;;19.18;91.29
56402;BME280;42299;35.160;26.100;2022-11-20T02:27:49;101647.22;;;19.17;92.23
56402;BME280;42299;35.160;26.100;2022-11-20T02:29:14;101649.00;;;19.18;93.00
56402;BME280;42299;35.160;26.100;2022-11-20T02:30:38;101632.94;;;19.18;93.56
56402;BME280;42299;35.160;26.100;2022-11-20T02:32:00;101637.41;;;19.19;94.59
56402;BME280;42299;35.160;26.100;2022-11-20T02:33:23;101631.16;;;19.18;95.12
56402;BME280;42299;35.160;26.100;2022-11-20T02:34:44;101633.81;;;19.18;96.21
56402;BME280;42299;35.160;26.100;2022-11-20T02:36:08;101634.72;;;19.19;97.28
56402;BME280;42299;35.160;26.100;2022-11-20T02:37:34;101626.69;;;19.20;98.38
56402;BME280;42299;35.160;26.100;2022-11-20T02:38:58;101623.13;;;19.20;99.38
56402;BME280;42299;35.160;26.100;2022-11-20T02:40:21;101626.69;;;19.20;100.00
56402;BME280;42299;35.160;26.100;2022-11-20T02:41:44;101615.97;;;19.22;100.00
56402;BME280;42299;35.160;26.100;2022-11-20T02:43:07;101619.56;;;19.22;100.00
56402;BME280;42299;35.160;26.100;2022-11-20T02:44:28;101615.09;;;19.23;100.00
56402;BME280;42299;35.160;26.100;2022-11-20T02:45:51;101611.47;;;19.24;100.00
56402;BME280;42299;35.160;26.100;2022-11-20T02:47:12;101605.22;;;19.25;100.00
56402;BME280;42299;35.160;26.100;2022-11-20T02:48:34;101612.38;;;19.27;100.00
56402;BME280;42299;35.160;26.100;2022-11-20T02:49:56;101618.63;;;19.28;100.00
56402;BME280;42299;35.160;26.100;2022-11-20T02:51:18;101616.78;;;19.30;100.00
56402;BME280;42299;35.160;26.100;2022-11-20T02:52:39;101616.78;;;19.30;100.00
56402;BME280;42299;35.160;26.100;2022-11-20T02:54:02;101622.16;;;19.30;100.00
56402;BME280;42299;35.160;26.100;2022-11-20T02:55:26;101615.03;;;19.27;100.00
56402;BME280;42299;35.160;26.100;2022-11-20T02:56:47;101611.47;;;19.24;100.00
56402;BME280;42299;35.160;26.100;2022-11-20T02:58:10;101617.75;;;19.18;100.00
56402;BME280;42299;35.160;26.100;2022-11-20T02:59:31;101616.03;;;19.14;100.00
56402;BME280;42299;35.160;26.100;2022-11-20T03:00:53;101620.53;;;19.09;100.00
56402;BME280;42299;35.160;26.100;2022-11-20T03:02:15;101628.56;;;19.07;100.00
56402;BME280;42299;35.160;26.100;2022-11-20T03:03:37;101631.22;;;19.07;100.00
56402;BME280;42299;35.160;26.100;2022-11-20T03:04:58;101625.88;;;19.07;100.00
56402;BME280;42299;35.160;26.100;2022-11-20T03:06:22;101618.72;;;19.08;100.00
56402;BME280;42299;35.160;26.100;2022-11-20T03:07:45;101624.09;;;19.05;100.00
56402;BME280;42299;35.160;26.100;2022-11-20T03:09:07;101632.16;;;19.02;100.00
56402;BME280;42299;35.160;26.100;2022-11-20T03:10:31;101628.59;;;19.00;100.00
56402;BME280;42299;35.160;26.100;2022-11-20T03:11:52;101626.81;;;18.99;100.00
56402;BME280;42299;35.160;26.100;2022-11-20T03:13:15;101623.22;;;18.98;100.00
56402;BME280;42299;35.160;26.100;2022-11-20T03:14:37;101623.22;;;18.98;100.00
56402;BME280;42299;35.160;26.100;2022-11-20T03:16:06;101625.00;;;18.98;100.00
56402;BME280;42299;35.160;26.100;2022-11-20T03:17:28;101617.91;;;18.95;100.00
56402;BME280;42299;35.160;26.100;2022-11-20T03:18:52;101617.03;;;18.96;100.00
56402;BME280;42299;35.160;26.100;2022-11-20T03:20:15;101614.31;;;18.98;100.00
56402;BME280;42299;35.160;26.100;2022-11-20T03:21:36;101625.91;;;18.98;100.00
56402;BME280;42299;35.160;26.100;2022-11-20T03:22:58;101625.94;;;18.97;100.00
56402;BME280;42299;35.160;26.100;2022-11-20T03:24:19;101613.44;;;18.93;100.00
56402;BME280;42299;35.160;26.100;2022-11-20T03:25:44;101612.56;;;18.91;100.00
56402;BME280;42299;35.160;26.100;2022-11-20T03:27:05;101612.59;;;18.89;100.00
56402;BME280;42299;35.160;26.100;2022-11-20T03:28:28;101615.28;;;18.86;100.00
56402;BME280;42299;35.160;26.100;2022-11-20T03:29:49;101613.47;;;18.85;100.00
56402;BME280;42299;35.160;26.100;2022-11-20T03:31:13;101609.94;;;18.83;100.00
56402;BME280;42299;35.160;26.100;2022-11-20T03:32:36;101612.63;;;18.79;100.00
56402;BME280;42299;35.160;26.100;2022-11-20T03:33:58;101613.50;;;18.78;100.00
56402;BME280;42299;35.160;26.100;2022-11-20T03:35:21;101609.06;;;18.78;100.00
56402;BME280;42299;35.160;26.100;2022-11-20T03:36:42;101611.72;;;18.81;100.00
56402;BME280;42299;35.160;26.100;2022-11-20T03:38:05;101600.13;;;18.82;100.00
56402;BME280;42299;35.160;26.100;2022-11-20T03:39:26;101593.84;;;18.85;100.00
56402;BME280;42299;35.160;26.100;2022-11-20T03:40:50;101602.78;;;18.88;100.00
56402;BME280;42299;35.160;26.100;2022-11-20T03:42:12;101600.09;;;18.88;100.00
56402;BME280;42299;35.160;26.100;2022-11-20T03:43:48;101597.44;;;18.88;100.00
56402;BME280;42299;35.160;26.100;2022-11-20T03:45:11;101595.66;;;18.90;100.00
56402;BME280;42299;35.160;26.100;2022-11-20T03:46:32;101610.78;;;18.91;100.00
56402;BME280;42299;35.160;26.100;2022-11-20T03:47:55;101602.75;;;18.93;100.00
56402;BME280;42299;35.160;26.100;2022-11-20T03:49:17;101617.03;;;18.92;100.00
56402;BME280;42299;35.160;26.100;2022-11-20T03:50:40;101618.84;;;18.90;100.00
56402;BME280;42299;35.160;26.100;2022-11-20T03:52:01;101617.97;;;18.83;100.00
56402;BME280;42299;35.160;26.100;2022-11-20T03:53:23;101618.88;;;18.78;100.00
56402;BME280;42299;35.160;26.100;2022-11-20T03:54:45;101620.66;;;18.71;100.00
56402;BME280;42299;35.160;26.100;2022-11-20T03:56:10;101616.25;;;18.65;100.00
56402;BME280;42299;35.160;26.100;2022-11-20T03:57:33;101616.28;;;18.62;100.00
56402;BME280;42299;35.160;26.100;2022-11-20T03:58:55;101608.25;;;18.62;100.00
56402;BME280;42299;35.160;26.100;2022-11-20T04:00:17;101616.28;;;18.62;100.00
56402;BME280;42299;35.160;26.100;2022-11-20T04:01:40;101616.28;;;18.61;100.00
56402;BME280;42299;35.160;26.100;2022-11-20T04:03:02;101622.50;;;18.60;100.00
56402;BME280;42299;35.160;26.100;2022-11-20T04:04:24;101618.06;;;18.60;100.00
56402;BME280;42299;35.160;26.100;2022-11-20T04:05:47;101608.25;;;18.61;100.00
56402;BME280;42299;35.160;26.100;2022-11-20T04:07:08;101617.16;;;18.61;100.00
56402;BME280;42299;35.160;26.100;2022-11-20T04:08:30;101621.63;;;18.64;100.00
56402;BME280;42299;35.160;26.100;2022-11-20T04:09:53;101611.78;;;18.64;100.00
56402;BME280;42299;35.160;26.100;2022-11-20T04:11:19;101603.75;;;18.66;100.00
56402;BME280;42299;35.160;26.100;2022-11-20T04:12:42;101613.56;;;18.65;100.00
56402;BME280;42299;35.160;26.100;2022-11-20T04:14:05;101610.91;;;18.61;100.00
56402;BME280;42299;35.160;26.100;2022-11-20T04:15:26;101610.03;;;18.59;100.00
56402;BME280;42299;35.160;26.100;2022-11-20T04:16:49;101611.81;;;18.60;100.00
56402;BME280;42299;35.160;26.100;2022-11-20T04:18:11;101606.47;;;18.60;100.00
56402;BME280;42299;35.160;26.100;2022-11-20T04:19:33;101604.72;;;18.56;100.00
56402;BME280;42299;35.160;26.100;2022-11-20T04:20:56;101607.34;;;18.51;100.00
56402;BME280;42299;35.160;26.100;2022-11-20T04:22:19;101616.28;;;18.49;100.00
56402;BME280;42299;35.160;26.100;2022-11-20T04:23:41;101612.72;;;18.48;100.00
56402;BME280;42299;35.160;26.100;2022-11-20T04:25:03;101616.28;;;18.50;100.00
56402;BME280;42299;35.160;26.100;2022-11-20T04:26:28;101610.94;;;18.50;100.00
56402;BME280;42299;35.160;26.100;2022-11-20T04:27:49;101610.06;;;18.41;100.00
56402;BME280;42299;35.160;26.100;2022-11-20T04:29:12;101603.84;;;18.26;100.00
56402;BME280;42299;35.160;26.100;2022-11-20T04:30:33;101604.78;;;18.15;100.00
56402;BME280;42299;35.160;26.100;2022-11-20T04:31:55;101599.44;;;18.06;100.00
56402;BME280;42299;35.160;26.100;2022-11-20T04:33:18;101603.00;;;18.06;100.00
56402;BME280;42299;35.160;26.100;2022-11-20T04:34:39;101595.00;;;18.08;100.00
56402;BME280;42299;35.160;26.100;2022-11-20T04:36:03;101586.06;;;18.12;100.00
56402;BME280;42299;35.160;26.100;2022-11-20T04:37:25;101580.72;;;18.18;100.00
56402;BME280;42299;35.160;26.100;2022-11-20T04:38:50;101570.00;;;18.28;100.00
56402;BME280;42299;35.160;26.100;2022-11-20T04:40:12;101578.00;;;18.38;100.00
56402;BME280;42299;35.160;26.100;2022-11-20T04:41:36;101578.84;;;18.46;100.00
56402;BME280;42299;35.160;26.100;2022-11-20T04:42:57;101581.53;;;18.56;100.00
56402;BME280;42299;35.160;26.100;2022-11-20T04:44:20;101579.69;;;18.70;100.00
56402;BME280;42299;35.160;26.100;2022-11-20T04:45:42;101580.50;;;18.83;100.00
56402;BME280;42299;35.160;26.100;2022-11-20T04:47:04;101573.34;;;18.87;100.00
56402;BME280;42299;35.160;26.100;2022-11-20T04:48:27;101568.88;;;18.90;100.00
56402;BME280;42299;35.160;26.100;2022-11-20T04:49:49;101566.19;;;18.93;100.00
56402;BME280;42299;35.160;26.100;2022-11-20T04:51:11;101576.84;;;18.98;100.00
56402;BME280;42299;35.160;26.100;2022-11-20T04:52:33;101568.81;;;19.02;100.00
56402;BME280;42299;35.160;26.100;2022-11-20T04:53:56;101568.78;;;19.05;100.00
56402;BME280;42299;35.160;26.100;2022-11-20T04:55:18;101563.41;;;19.08;100.00
56402;BME280;42299;35.160;26.100;2022-11-20T04:56:41;101562.47;;;19.14;100.00
56402;BME280;42299;35.160;26.100;2022-11-20T04:58:03;101563.34;;;19.18;100.00
56402;BME280;42299;35.160;26.100;2022-11-20T04:59:25;101566.91;;;19.20;100.00
56402;BME280;42299;35.160;26.100;2022-11-20T05:00:47;101557.06;;;19.22;100.00
56402;BME280;42299;35.160;26.100;2022-11-20T05:02:12;101548.16;;;19.21;100.00
56402;BME280;42299;35.160;26.100;2022-11-20T05:03:33;101560.66;;;19.21;100.00
56402;BME280;42299;35.160;26.100;2022-11-20T05:04:56;101549.03;;;19.22;100.00
56402;BME280;42299;35.160;26.100;2022-11-20T05:06:20;101553.47;;;19.26;100.00
56402;BME280;42299;35.160;26.100;2022-11-20T05:07:41;101555.25;;;19.27;100.00
56402;BME280;42299;35.160;26.100;2022-11-20T05:09:03;101560.56;;;19.31;100.00
56402;BME280;42299;35.160;26.100;2022-11-20T05:10:25;101551.63;;;19.34;100.00
56402;BME280;42299;35.160;26.100;2022-11-20T05:11:49;101564.97;;;19.38;100.00
56402;BME280;42299;35.160;26.100;2022-11-20T05:13:11;101567.66;;;19.40;100.00
56402;BME280;42299;35.160;26.100;2022-11-20T05:14:34;101564.97;;;19.38;100.00
56402;BME280;42299;35.160;26.100;2022-11-20T05:16:01;101570.31;;;19.37;100.00
56402;BME280;42299;35.160;26.100;2022-11-20T05:17:22;101566.78;;;19.35;100.00
56402;BME280;42299;35.160;26.100;2022-11-20T05:18:45;101565.00;;;19.34;100.00
56402;BME280;42299;35.160;26.100;2022-11-20T05:20:07;101556.13;;;19.29;100.00
56402;BME280;42299;35.160;26.100;2022-11-20T05:21:30;101558.78;;;19.30;100.00
56402;BME280;42299;35.160;26.100;2022-11-20T05:22:52;101553.41;;;19.32;100.00
56402;BME280;42299;35.160;26.100;2022-11-20T05:24:14;101550.72;;;19.35;100.00
56402;BME280;42299;35.160;26.100;2022-11-20T05:25:36;101554.25;;;19.40;100.00
56402;BME280;42299;35.160;26.100;2022-11-20T05:26:59;101555.13;;;19.48;100.00
56402;BME280;42299;35.160;26.100;2022-11-20T05:28:22;101557.75;;;19.53;100.00
56402;BME280;42299;35.160;26.100;2022-11-20T05:29:44;101558.63;;;19.55;100.00
56402;BME280;42299;35.160;26.100;2022-11-20T05:31:06;101568.41;;;19.60;100.00
56402;BME280;42299;35.160;26.100;2022-11-20T05:32:28;101559.44;;;19.63;100.00
56402;BME280;42299;35.160;26.100;2022-11-20T05:33:51;101560.31;;;19.66;100.00
56402;BME280;42299;35.160;26.100;2022-11-20T05:35:12;101562.94;;;19.69;100.00
56402;BME280;42299;35.160;26.100;2022-11-20T05:36:35;101569.19;;;19.71;100.00
56402;BME280;42299;35.160;26.100;2022-11-20T05:37:56;101555.78;;;19.71;100.00
56402;BME280;42299;35.160;26.100;2022-11-20T05:39:19;101545.06;;;19.73;100.00
56402;BME280;42299;35.160;26.100;2022-11-20T05:40:41;101561.09;;;19.77;100.00
56402;BME280;42299;35.160;26.100;2022-11-20T05:42:04;101552.16;;;19.81;100.00
56402;BME280;42299;35.160;26.100;2022-11-20T05:43:45;101549.44;;;19.83;100.00
56402;BME280;42299;35.160;26.100;2022-11-20T05:45:08;101554.78;;;19.86;100.00
56402;BME280;42299;35.160;26.100;2022-11-20T05:46:32;101564.53;;;19.90;100.00
56402;BME280;42299;35.160;26.100;2022-11-20T05:47:58;101573.44;;;19.95;100.00
56402;BME280;42299;35.160;26.100;2022-11-20T05:49:20;101581.44;;;20.00;100.00
56402;BME280;42299;35.160;26.100;2022-11-20T05:50:42;101574.22;;;20.05;100.00
56402;BME280;42299;35.160;26.100;2022-11-20T05:52:05;101571.47;;;20.11;100.00
56402;BME280;42299;35.160;26.100;2022-11-20T05:53:28;101569.63;;;20.19;100.00
56402;BME280;42299;35.160;26.100;2022-11-20T05:54:50;101565.97;;;20.26;100.00
56402;BME280;42299;35.160;26.100;2022-11-20T05:56:14;101584.69;;;20.34;100.00
56402;BME280;42299;35.160;26.100;2022-11-20T05:57:39;101571.19;;;20.40;100.00
56402;BME280;42299;35.160;26.100;2022-11-20T05:59:01;101566.66;;;20.46;100.00
56402;BME280;42299;35.160;26.100;2022-11-20T06:00:23;101589.78;;;20.55;100.00
56402;BME280;42299;35.160;26.100;2022-11-20T06:01:45;101581.63;;;20.62;100.00
56402;BME280;42299;35.160;26.100;2022-11-20T06:03:07;101588.75;;;20.66;100.00
56402;BME280;42299;35.160;26.100;2022-11-20T06:04:28;101582.50;;;20.67;100.00
56402;BME280;42299;35.160;26.100;2022-11-20T06:05:51;101587.88;;;20.67;100.00
56402;BME280;42299;35.160;26.100;2022-11-20T06:07:13;101592.28;;;20.68;100.00
56402;BME280;42299;35.160;26.100;2022-11-20T06:08:35;101598.56;;;20.69;100.00
56402;BME280;42299;35.160;26.100;2022-11-20T06:09:57;101601.22;;;20.69;100.00
56402;BME280;42299;35.160;26.100;2022-11-20T06:11:19;101598.53;;;20.72;100.00
56402;BME280;42299;35.160;26.100;2022-11-20T06:12:43;101594.00;;;20.76;100.00
56402;BME280;42299;35.160;26.100;2022-11-20T06:14:05;101593.03;;;20.81;100.00
56402;BME280;42299;35.160;26.100;2022-11-20T06:15:27;101589.41;;;20.87;100.00
56402;BME280;42299;35.160;26.100;2022-11-20T06:16:50;101587.53;;;20.90;100.00
56402;BME280;42299;35.160;26.100;2022-11-20T06:18:13;101586.56;;;20.96;100.00
56402;BME280;42299;35.160;26.100;2022-11-20T06:19:34;101591.00;;;20.98;100.00
56402;BME280;42299;35.160;26.100;2022-11-20T06:21:00;101597.22;;;21.02;100.00
56402;BME280;42299;35.160;26.100;2022-11-20T06:22:23;101600.81;;;21.01;100.00
56402;BME280;42299;35.160;26.100;2022-11-20T06:23:46;101599.00;;;21.01;100.00
56402;BME280;42299;35.160;26.100;2022-11-20T06:25:08;101590.94;;;21.01;100.00
56402;BME280;42299;35.160;26.100;2022-11-20T06:26:30;101584.66;;;21.04;100.00
56402;BME280;42299;35.160;26.100;2022-11-20T06:27:54;101596.28;;;21.06;100.00
56402;BME280;42299;35.160;26.100;2022-11-20T06:29:17;101609.66;;;21.09;100.00
56402;BME280;42299;35.160;26.100;2022-11-20T06:30:44;101606.94;;;21.11;100.00
56402;BME280;42299;35.160;26.100;2022-11-20T06:32:07;101606.88;;;21.14;100.00
56402;BME280;42299;35.160;26.100;2022-11-20T06:33:30;101599.72;;;21.14;100.00
56402;BME280;42299;35.160;26.100;2022-11-20T06:34:53;101588.06;;;21.15;100.00
56402;BME280;42299;35.160;26.100;2022-11-20T06:36:17;101588.09;;;21.17;100.00
56402;BME280;42299;35.160;26.100;2022-11-20T06:37:39;101583.59;;;21.19;100.00
56402;BME280;42299;35.160;26.100;2022-11-20T06:39:02;101579.13;;;21.19;100.00
56402;BME280;42299;35.160;26.100;2022-11-20T06:40:24;101577.28;;;21.21;100.00
56402;BME280;42299;35.160;26.100;2022-11-20T06:41:46;101579.94;;;21.24;100.00
56402;BME280;42299;35.160;26.100;2022-11-20T06:43:10;101573.59;;;21.27;100.00
56402;BME280;42299;35.160;26.100;2022-11-20T06:44:32;101562.84;;;21.28;100.00
56402;BME280;42299;35.160;26.100;2022-11-20T06:45:56;101567.28;;;21.31;100.00
56402;BME280;42299;35.160;26.100;2022-11-20T06:47:17;101580.66;;;21.34;100.00
56402;BME280;42299;35.160;26.100;2022-11-20T06:48:40;101575.25;;;21.35;100.00
56402;BME280;42299;35.160;26.100;2022-11-20T06:50:01;101572.53;;;21.38;100.00
56402;BME280;42299;35.160;26.100;2022-11-20T06:51:24;101567.97;;;21.45;100.00
56402;BME280;42299;35.160;26.100;2022-11-20T06:52:46;101577.72;;;21.49;100.00
56402;BME280;42299;35.160;26.100;2022-11-20T06:54:08;101582.19;;;21.52;100.00
56402;BME280;42299;35.160;26.100;2022-11-20T06:55:31;101572.28;;;21.54;100.00
56402;BME280;42299;35.160;26.100;2022-11-20T06:56:53;101579.41;;;21.56;100.00
56402;BME280;42299;35.160;26.100;2022-11-20T06:58:17;101582.97;;;21.58;100.00
56402;BME280;42299;35.160;26.100;2022-11-20T06:59:39;101589.19;;;21.60;100.00
56402;BME280;42299;35.160;26.100;2022-11-20T07:01:03;101590.03;;;21.64;100.00
56402;BME280;42299;35.160;26.100;2022-11-20T07:02:26;101590.91;;;21.66;100.00
56402;BME280;42299;35.160;26.100;2022-11-20T07:03:49;101581.00;;;21.68;100.00
56402;BME280;42299;35.160;26.100;2022-11-20T07:05:11;101586.34;;;21.69;100.00